Time;durP1;ratioP1;P1;durP2;ratioP2;P2;SDS_P1;SDS_P2;PMS_P1;PMS_P2;Temp;Humidity;BMP_temperature;BMP_pressure;BME280_temperature;BME280_humidity;BME280_pressure;Samples;Min_cycle;Max_cycle;Signal;HPM_P1;HPM_P2
2021/05/22 00:00:29;;;;;;;1.27;1.00;;;12.80;1.00;;;;;;5072555;28;20031;-85
2021/05/22 00:02:55;;;;;;;1.05;0.95;;;12.90;1.00;;;;;;5072820;28;20107;-86
2021/05/22 00:05:21;;;;;;;1.15;0.80;;;12.90;1.00;;;;;;5071917;28;20066;-86
2021/05/22 00:07:46;;;;;;;0.77;0.77;;;13.40;1.00;;;;;;5072199;28;20496;-86
2021/05/22 00:10:13;;;;;;;2.45;0.90;;;13.00;1.00;;;;;;5072207;28;20496;-86
2021/05/22 00:12:40;;;;;;;1.75;0.93;;;13.00;1.00;;;;;;5071587;28;20029;-87
2021/05/22 00:15:09;;;;;;;1.13;0.77;;;13.00;1.00;;;;;;5073710;28;20021;-86
2021/05/22 00:17:35;;;;;;;0.70;0.70;;;13.00;1.00;;;;;;5072484;28;20146;-86
2021/05/22 00:20:00;;;;;;;2.63;0.95;;;12.90;1.00;;;;;;5071812;28;20078;-86
2021/05/22 00:22:27;;;;;;;2.75;0.88;;;12.80;1.00;;;;;;5071677;28;20512;-86
2021/05/22 00:24:53;;;;;;;1.52;1.10;;;13.00;1.00;;;;;;5071713;28;20443;-86
2021/05/22 00:27:19;;;;;;;1.73;1.10;;;13.10;1.00;;;;;;5072064;28;20029;-87
2021/05/22 00:29:44;;;;;;;2.78;0.95;;;13.10;1.00;;;;;;5071713;28;20104;-87
2021/05/22 00:32:10;;;;;;;1.20;1.10;;;13.10;1.00;;;;;;5070057;28;20098;-86
2021/05/22 00:34:36;;;;;;;2.30;1.30;;;13.00;1.00;;;;;;5070237;28;20024;-86
2021/05/22 00:37:02;;;;;;;1.50;1.20;;;13.20;1.00;;;;;;5071816;28;20032;-85
2021/05/22 00:39:27;;;;;;;1.70;1.10;;;13.00;1.00;;;;;;5071582;28;20066;-87
2021/05/22 00:41:53;;;;;;;5.03;1.20;;;13.00;1.00;;;;;;5073286;28;20045;-86
2021/05/22 00:44:19;;;;;;;3.03;1.30;;;13.00;1.00;;;;;;5071065;28;20491;-86
2021/05/22 00:46:45;;;;;;;1.20;1.10;;;12.90;1.00;;;;;;5070973;28;20104;-86
2021/05/22 00:49:10;;;;;;;2.05;1.20;;;12.90;1.00;;;;;;5070474;28;20085;-85
2021/05/22 00:51:37;;;;;;;1.60;1.50;;;13.00;1.00;;;;;;5069650;28;20463;-87
2021/05/22 00:54:03;;;;;;;3.53;1.50;;;12.80;1.00;;;;;;5073183;28;20094;-87
2021/05/22 00:56:29;;;;;;;1.65;1.55;;;12.60;1.00;;;;;;5069347;28;20059;-86
2021/05/22 00:58:55;;;;;;;1.98;1.75;;;12.60;1.00;;;;;;5071508;28;20067;-86
2021/05/22 01:01:21;;;;;;;2.20;1.58;;;12.60;1.00;;;;;;5071064;28;20021;-86
2021/05/22 01:03:50;;;;;;;1.70;1.52;;;12.60;1.00;;;;;;5071229;28;20021;-85
2021/05/22 01:06:21;;;;;;;1.48;1.20;;;12.60;1.00;;;;;;5071777;28;20497;-86
2021/05/22 01:09:00;;;;;;;1.60;1.30;;;13.10;1.00;;;;;;5070656;28;20260;-86
2021/05/22 01:11:33;;;;;;;1.60;1.50;;;12.50;1.00;;;;;;5071041;28;20435;-87
2021/05/22 01:14:03;;;;;;;1.85;1.58;;;12.50;1.00;;;;;;5070963;28;20024;-87
2021/05/22 01:16:30;;;;;;;1.83;1.50;;;12.60;1.00;;;;;;5070646;28;20024;-86
2021/05/22 01:18:58;;;;;;;2.72;1.70;;;12.50;1.00;;;;;;5071306;28;20024;-86
2021/05/22 01:21:25;;;;;;;2.47;1.80;;;12.50;1.00;;;;;;5069871;28;20059;-86
2021/05/22 01:23:57;;;;;;;3.63;1.58;;;12.90;1.00;;;;;;5070830;28;20397;-86
2021/05/22 01:26:23;;;;;;;1.70;1.60;;;12.50;1.00;;;;;;5071290;28;20102;-86
2021/05/22 01:28:49;;;;;;;1.80;1.70;;;12.90;1.00;;;;;;5070575;28;20035;-85
2021/05/22 01:31:15;;;;;;;2.38;1.63;;;12.60;1.00;;;;;;5070267;28;20044;-86
2021/05/22 01:33:41;;;;;;;1.75;1.35;;;12.30;1.00;;;;;;5070696;28;20056;-85
2021/05/22 01:36:07;;;;;;;1.63;1.52;;;12.30;1.00;;;;;;5071130;28;20063;-85
2021/05/22 01:38:32;;;;;;;2.25;1.42;;;12.20;1.00;;;;;;5070060;28;20081;-85
2021/05/22 01:40:58;;;;;;;1.58;1.33;;;12.10;1.00;;;;;;5070414;28;20036;-86
2021/05/22 01:43:24;;;;;;;2.25;1.30;;;12.10;1.00;;;;;;5070442;28;20587;-86
2021/05/22 01:45:52;;;;;;;3.20;1.08;;;12.10;1.00;;;;;;5068628;28;20091;-85
2021/05/22 01:48:24;;;;;;;2.97;1.30;;;12.10;1.00;;;;;;5071402;28;20043;-86
2021/05/22 01:51:00;;;;;;;1.48;1.20;;;12.30;1.00;;;;;;5070715;28;20418;-85
2021/05/22 01:53:27;;;;;;;2.90;1.30;;;12.20;1.00;;;;;;5069603;28;20040;-86
2021/05/22 01:55:53;;;;;;;1.20;1.10;;;12.20;1.00;;;;;;5070120;28;20029;-85
2021/05/22 01:58:19;;;;;;;2.20;1.23;;;12.10;1.00;;;;;;5070504;28;20473;-86
2021/05/22 02:00:45;;;;;;;3.63;1.70;;;12.10;1.00;;;;;;5070167;28;20432;-86
2021/05/22 02:03:25;;;;;;;1.45;1.25;;;12.10;1.00;;;;;;5070071;28;20480;-86
2021/05/22 02:05:53;;;;;;;1.65;1.15;;;12.00;1.00;;;;;;5086145;28;20036;-86
2021/05/22 02:08:21;;;;;;;1.40;1.30;;;11.90;1.00;;;;;;5069452;28;20032;-86
2021/05/22 02:10:48;;;;;;;1.25;1.15;;;12.00;1.00;;;;;;5069980;28;20453;-86
2021/05/22 02:13:14;;;;;;;2.45;1.20;;;12.50;1.00;;;;;;5069636;28;20393;-86
2021/05/22 02:15:44;;;;;;;2.95;1.42;;;12.00;1.00;;;;;;5070203;28;20052;-86
2021/05/22 02:18:12;;;;;;;2.25;1.30;;;12.00;1.00;;;;;;5071313;28;20064;-86
2021/05/22 02:20:38;;;;;;;1.27;1.00;;;12.10;1.00;;;;;;5071030;28;20028;-87
2021/05/22 02:23:06;;;;;;;1.65;1.05;;;12.10;1.00;;;;;;5069312;28;20036;-86
2021/05/22 02:25:32;;;;;;;1.30;1.20;;;12.10;1.00;;;;;;5068351;28;20718;-86
2021/05/22 02:28:04;;;;;;;1.25;1.15;;;12.00;1.00;;;;;;5067864;28;20392;-86
2021/05/22 02:30:29;;;;;;;1.63;1.40;;;12.00;1.00;;;;;;5068549;28;20499;-86
2021/05/22 02:32:56;;;;;;;1.80;1.27;;;11.90;1.00;;;;;;5070423;28;20040;-87
2021/05/22 02:35:24;;;;;;;1.70;1.02;;;11.90;1.00;;;;;;5069968;28;20457;-86
2021/05/22 02:37:52;;;;;;;1.88;1.17;;;11.90;1.00;;;;;;5068212;28;20504;-86
2021/05/22 02:40:22;;;;;;;2.22;1.17;;;12.50;1.00;;;;;;5068335;28;20025;-87
2021/05/22 02:42:55;;;;;;;1.77;1.20;;;12.00;1.00;;;;;;5070010;28;20052;-86
2021/05/22 02:45:24;;;;;;;1.65;1.20;;;11.90;1.00;;;;;;5068401;28;20021;-86
2021/05/22 02:47:53;;;;;;;1.73;1.27;;;11.80;1.00;;;;;;5087592;28;20020;-86
2021/05/22 02:50:20;;;;;;;1.42;1.20;;;11.70;1.00;;;;;;5073364;28;20029;-86
2021/05/22 02:52:47;;;;;;;3.95;1.50;;;11.70;1.00;;;;;;5073784;28;20033;-86
2021/05/22 02:55:12;;;;;;;2.05;1.30;;;11.80;1.00;;;;;;5073686;28;20095;-86
2021/05/22 02:57:39;;;;;;;2.30;1.30;;;11.90;1.00;;;;;;5073545;28;20033;-87
2021/05/22 03:00:06;;;;;;;3.35;1.40;;;12.00;1.00;;;;;;5074963;28;20024;-87
2021/05/22 03:02:34;;;;;;;3.85;1.80;;;12.00;1.00;;;;;;5072715;28;20020;-87
2021/05/22 03:04:59;;;;;;;4.68;3.38;;;12.10;1.00;;;;;;5071281;28;20037;-86
2021/05/22 03:07:26;;;;;;;7.50;4.05;;;12.00;1.00;;;;;;5071940;28;20378;-86
2021/05/22 03:09:52;;;;;;;5.72;2.85;;;11.90;1.00;;;;;;5073500;28;20039;-86
2021/05/22 03:12:25;;;;;;;3.55;2.60;;;11.80;1.00;;;;;;5073331;28;20028;-86
2021/05/22 03:14:51;;;;;;;3.35;2.70;;;11.70;1.00;;;;;;5073728;28;20024;-86
2021/05/22 03:17:17;;;;;;;4.53;2.30;;;11.60;1.00;;;;;;5072987;28;20027;-87
2021/05/22 03:19:43;;;;;;;2.10;1.60;;;12.00;1.00;;;;;;5072854;28;20397;-86
2021/05/22 03:22:09;;;;;;;3.25;1.60;;;11.50;1.00;;;;;;5073011;28;20028;-86
2021/05/22 03:24:34;;;;;;;2.85;1.63;;;11.90;1.00;;;;;;5071887;28;20115;-87
2021/05/22 03:27:00;;;;;;;2.10;1.65;;;12.00;1.00;;;;;;5070400;28;20397;-86
2021/05/22 03:29:26;;;;;;;2.60;1.70;;;11.50;1.00;;;;;;5073228;28;20062;-86
2021/05/22 03:31:52;;;;;;;3.25;1.50;;;11.40;1.00;;;;;;5072385;28;20052;-86
2021/05/22 03:34:17;;;;;;;2.53;1.80;;;11.30;1.00;;;;;;5072481;28;20035;-86
2021/05/22 03:36:44;;;;;;;4.88;1.83;;;11.40;1.00;;;;;;5071916;28;20017;-86
2021/05/22 03:39:10;;;;;;;7.40;1.92;;;11.40;1.00;;;;;;5074364;28;20028;-86
2021/05/22 03:41:35;;;;;;;8.10;1.90;;;11.50;1.00;;;;;;5071961;28;20029;-86
2021/05/22 03:44:01;;;;;;;2.67;2.40;;;11.60;1.00;;;;;;5071382;28;20064;-86
2021/05/22 03:46:27;;;;;;;5.40;2.35;;;11.50;1.00;;;;;;5070782;28;20036;-86
2021/05/22 03:48:53;;;;;;;3.35;2.80;;;11.50;1.00;;;;;;5072409;28;20035;-86
2021/05/22 03:51:18;;;;;;;2.80;2.55;;;11.40;1.00;;;;;;5073185;28;20025;-86
2021/05/22 03:53:44;;;;;;;3.67;2.58;;;11.20;1.00;;;;;;5072090;28;20039;-86
2021/05/22 03:56:10;;;;;;;2.85;2.65;;;11.20;1.00;;;;;;5072378;28;20472;-86
2021/05/22 03:58:35;;;;;;;3.72;2.42;;;11.00;1.00;;;;;;5072437;28;20099;-86
2021/05/22 04:01:01;;;;;;;4.22;2.10;;;11.00;1.00;;;;;;5072206;28;20370;-86
2021/05/22 04:03:27;;;;;;;3.38;2.17;;;11.00;1.00;;;;;;5071714;28;20060;-86
2021/05/22 04:05:52;;;;;;;2.40;2.15;;;11.00;1.00;;;;;;5073981;28;20024;-86
2021/05/22 04:08:18;;;;;;;4.82;2.35;;;10.90;1.00;;;;;;5072181;28;20044;-86
2021/05/22 04:10:44;;;;;;;3.03;1.98;;;10.90;1.00;;;;;;5071382;28;20078;-87
2021/05/22 04:13:09;;;;;;;2.97;1.95;;;10.90;1.00;;;;;;5072183;28;20111;-86
2021/05/22 04:15:35;;;;;;;2.28;2.00;;;10.90;1.00;;;;;;5072742;28;20448;-88
2021/05/22 04:18:01;;;;;;;4.15;2.13;;;11.00;1.00;;;;;;5072609;28;20111;-89
2021/05/22 04:20:26;;;;;;;2.72;1.65;;;11.00;1.00;;;;;;5072284;28;20496;-86
2021/05/22 04:22:52;;;;;;;4.20;2.00;;;11.00;1.00;;;;;;5068882;28;20120;-85
2021/05/22 04:25:18;;;;;;;3.63;2.10;;;10.90;1.00;;;;;;5070433;28;20059;-86
2021/05/22 04:27:43;;;;;;;2.40;1.90;;;11.50;1.00;;;;;;5071982;28;20028;-86
2021/05/22 04:30:09;;;;;;;2.15;1.90;;;11.10;1.00;;;;;;5073255;28;20029;-86
2021/05/22 04:32:35;;;;;;;4.10;2.15;;;11.20;1.00;;;;;;5071830;28;20510;-87
2021/05/22 04:35:01;;;;;;;4.95;2.15;;;11.20;1.00;;;;;;5071839;28;20162;-86
2021/05/22 04:37:26;;;;;;;3.03;1.90;;;11.20;1.00;;;;;;5071597;28;20024;-86
2021/05/22 04:39:52;;;;;;;4.20;1.65;;;11.20;1.00;;;;;;5070313;28;20028;-86
2021/05/22 04:42:18;;;;;;;2.83;1.77;;;11.20;1.00;;;;;;5070949;28;20033;-87
2021/05/22 04:44:43;;;;;;;3.03;2.38;;;11.30;1.00;;;;;;5073044;28;20028;-87
2021/05/22 04:47:09;;;;;;;3.60;2.28;;;11.50;1.00;;;;;;5071387;28;20035;-86
2021/05/22 04:49:35;;;;;;;2.97;2.00;;;11.30;1.00;;;;;;5071360;28;20404;-86
2021/05/22 04:52:00;;;;;;;2.53;1.80;;;11.70;1.00;;;;;;5070596;28;20032;-86
2021/05/22 04:54:26;;;;;;;2.17;1.75;;;11.30;1.00;;;;;;5071659;28;20067;-89
2021/05/22 04:56:52;;;;;;;2.53;1.70;;;11.40;1.00;;;;;;5073215;28;20779;-85
2021/05/22 04:59:18;;;;;;;7.15;2.20;;;11.30;1.00;;;;;;5070725;28;20451;-85
2021/05/22 05:01:44;;;;;;;4.35;1.80;;;11.40;1.00;;;;;;5065874;28;20539;-86
2021/05/22 05:04:09;;;;;;;2.40;2.00;;;11.50;1.00;;;;;;5067200;28;20021;-87
2021/05/22 05:06:36;;;;;;;3.95;1.80;;;11.40;1.00;;;;;;5066154;28;20473;-86
2021/05/22 05:09:04;;;;;;;3.35;2.45;;;11.30;1.00;;;;;;5063632;28;20485;-87
2021/05/22 05:11:30;;;;;;;2.70;1.90;;;11.30;1.00;;;;;;5084211;28;20433;-87
2021/05/22 05:13:56;;;;;;;2.60;2.28;;;11.50;1.00;;;;;;5070886;28;20086;-86
2021/05/22 05:16:22;;;;;;;5.85;2.60;;;11.50;1.00;;;;;;5070061;28;20424;-87
2021/05/22 05:18:47;;;;;;;3.92;2.55;;;11.70;1.00;;;;;;5070709;28;20082;-87
2021/05/22 05:21:13;;;;;;;4.05;2.53;;;11.80;1.00;;;;;;5070298;28;20071;-88
2021/05/22 05:23:39;;;;;;;3.75;2.97;;;11.80;1.00;;;;;;5070244;28;20028;-87
2021/05/22 05:26:06;;;;;;;5.40;2.38;;;12.20;1.00;;;;;;5070698;28;20028;-88
2021/05/22 05:28:32;;;;;;;4.38;2.92;;;12.10;1.00;;;;;;5070713;28;20027;-87
2021/05/22 05:30:58;;;;;;;3.53;3.10;;;12.00;1.00;;;;;;5070092;28;20081;-87
2021/05/22 05:33:23;;;;;;;3.75;2.50;;;12.00;1.00;;;;;;5070555;28;20041;-87
2021/05/22 05:35:49;;;;;;;5.20;2.67;;;12.20;1.00;;;;;;5070749;28;20044;-87
2021/05/22 05:38:18;;;;;;;6.88;2.92;;;12.40;1.00;;;;;;5069097;28;20546;-86
2021/05/22 05:40:44;;;;;;;9.98;3.72;;;12.50;1.00;;;;;;5070560;28;20020;-89
2021/05/22 05:43:11;;;;;;;3.55;2.80;;;12.40;1.00;;;;;;5071670;28;20035;-87
2021/05/22 05:45:38;;;;;;;4.25;2.60;;;12.50;1.00;;;;;;5069943;28;20094;-87
2021/05/22 05:48:05;;;;;;;3.72;2.22;;;12.60;1.00;;;;;;5072253;28;20075;-87
2021/05/22 05:50:31;;;;;;;10.45;2.35;;;12.60;1.00;;;;;;5070153;28;20032;-87
2021/05/22 05:52:57;;;;;;;2.97;2.10;;;12.50;1.00;;;;;;5070063;28;20110;-87
2021/05/22 05:55:22;;;;;;;3.95;2.00;;;12.70;1.00;;;;;;5068952;28;20029;-86
2021/05/22 05:57:49;;;;;;;2.15;1.60;;;12.80;1.00;;;;;;5069149;28;20033;-86
2021/05/22 06:00:15;;;;;;;2.92;2.00;;;12.70;1.00;;;;;;5069924;28;20016;-86
2021/05/22 06:02:41;;;;;;;2.75;2.20;;;12.80;1.00;;;;;;5069182;28;20020;-87
2021/05/22 06:05:07;;;;;;;3.60;2.20;;;13.00;1.00;;;;;;5070247;28;20028;-87
2021/05/22 06:07:33;;;;;;;4.95;2.58;;;12.90;1.00;;;;;;5069812;28;20039;-86
2021/05/22 06:09:59;;;;;;;3.17;2.08;;;13.00;1.00;;;;;;5066686;28;20029;-86
2021/05/22 06:12:25;;;;;;;4.65;2.70;;;13.00;1.00;;;;;;5069429;28;20044;-87
2021/05/22 06:14:55;;;;;;;2.25;2.05;;;12.80;1.00;;;;;;5069332;28;20032;-86
2021/05/22 06:17:20;;;;;;;3.25;2.00;;;12.90;1.00;;;;;;5069685;28;20120;-86
2021/05/22 06:19:46;;;;;;;3.25;2.00;;;12.70;1.00;;;;;;5067403;28;20117;-86
2021/05/22 06:22:12;;;;;;;2.67;1.90;;;12.80;1.00;;;;;;5067591;28;20020;-86
2021/05/22 06:24:37;;;;;;;6.45;2.28;;;12.90;1.00;;;;;;5070187;28;20398;-86
2021/05/22 06:27:03;;;;;;;3.10;1.80;;;13.10;1.00;;;;;;5071939;28;20020;-86
2021/05/22 06:29:29;;;;;;;3.13;2.15;;;13.10;1.00;;;;;;5071017;28;20118;-86
2021/05/22 06:31:55;;;;;;;5.88;3.22;;;13.20;1.00;;;;;;5071384;28;20048;-87
2021/05/22 06:34:21;;;;;;;4.55;2.55;;;13.30;1.00;;;;;;5067930;28;20515;-89
2021/05/22 06:36:47;;;;;;;3.95;2.00;;;13.20;1.00;;;;;;5071173;28;20025;-86
2021/05/22 06:39:12;;;;;;;2.72;1.80;;;13.20;1.00;;;;;;5071388;28;20027;-86
2021/05/22 06:41:38;;;;;;;3.45;1.83;;;13.10;1.00;;;;;;5068334;28;20032;-87
2021/05/22 06:44:06;;;;;;;3.22;2.42;;;13.80;1.00;;;;;;5067392;28;20036;-86
2021/05/22 06:48:58;;;;;;;2.30;2.00;;;13.60;1.00;;;;;;5068779;28;20028;-86
2021/05/22 06:51:24;;;;;;;3.35;1.70;;;13.80;1.00;;;;;;5068679;28;20067;-85
2021/05/22 06:53:50;;;;;;;4.32;1.40;;;14.00;1.00;;;;;;5071339;28;20131;-87
2021/05/22 06:56:15;;;;;;;5.30;1.35;;;14.20;1.00;;;;;;5069701;28;20028;-85
2021/05/22 06:58:41;;;;;;;5.75;1.67;;;14.10;1.00;;;;;;5070989;28;20090;-86
2021/05/22 07:01:06;;;;;;;3.42;1.45;;;14.70;1.00;;;;;;5069942;28;20024;-86
2021/05/22 07:03:32;;;;;;;6.60;1.80;;;15.00;1.00;;;;;;5068220;28;20024;-86
2021/05/22 07:06:00;;;;;;;3.40;1.67;;;14.30;1.00;;;;;;5070328;28;20032;-85
2021/05/22 07:08:25;;;;;;;3.92;1.60;;;14.30;1.00;;;;;;5071640;28;20024;-84
2021/05/22 07:10:51;;;;;;;3.92;1.50;;;14.30;1.00;;;;;;5069396;28;20124;-87
2021/05/22 07:13:17;;;;;;;3.03;1.00;;;14.70;1.00;;;;;;5067855;28;20024;-85
2021/05/22 07:15:42;;;;;;;3.78;1.40;;;14.50;1.00;;;;;;5069257;28;20028;-85
2021/05/22 07:18:08;;;;;;;3.70;1.50;;;14.60;1.00;;;;;;5070341;28;20057;-86
2021/05/22 07:20:34;;;;;;;4.57;1.38;;;14.90;1.00;;;;;;5068757;28;20028;-85
2021/05/22 07:22:59;;;;;;;3.13;1.60;;;14.90;1.00;;;;;;5068250;28;20393;-85
2021/05/22 07:25:25;;;;;;;6.90;1.83;;;15.20;1.00;;;;;;5068620;28;20031;-85
2021/05/22 07:27:52;;;;;;;4.25;1.60;;;15.20;1.00;;;;;;5068090;28;20024;-86
2021/05/22 07:30:19;;;;;;;3.40;1.60;;;15.40;1.00;;;;;;5071179;28;20064;-86
2021/05/22 07:32:45;;;;;;;5.03;1.60;;;15.30;1.00;;;;;;5070596;28;20051;-86
2021/05/22 07:35:13;;;;;;;4.90;1.90;;;15.20;1.00;;;;;;5071605;28;20034;-87
2021/05/22 07:37:40;;;;;;;2.65;1.73;;;15.00;1.00;;;;;;5073231;28;20020;-87
2021/05/22 07:40:07;;;;;;;4.03;1.85;;;14.70;1.00;;;;;;5072955;28;20107;-86
2021/05/22 07:42:33;;;;;;;3.25;1.77;;;14.70;1.00;;;;;;5072505;28;20029;-85
2021/05/22 07:44:59;;;;;;;8.65;2.22;;;14.70;1.00;;;;;;5074446;28;20031;-85
2021/05/22 07:47:25;;;;;;;4.13;1.80;;;14.40;1.00;;;;;;5073188;28;20028;-86
2021/05/22 07:49:51;;;;;;;3.70;2.05;;;14.20;1.00;;;;;;5072455;28;20017;-85
2021/05/22 07:52:18;;;;;;;5.60;2.17;;;14.50;1.00;;;;;;5072669;28;20033;-85
2021/05/22 07:54:48;;;;;;;5.63;1.65;;;14.60;1.00;;;;;;5072348;28;20123;-86
2021/05/22 07:57:15;;;;;;;6.30;2.03;;;14.40;1.00;;;;;;5073492;28;20400;-86
2021/05/22 07:59:41;;;;;;;3.67;1.80;;;14.50;1.00;;;;;;5071558;28;20031;-86
2021/05/22 08:02:07;;;;;;;8.20;2.13;;;14.50;1.00;;;;;;5073753;28;20024;-85
2021/05/22 08:04:34;;;;;;;3.00;1.70;;;14.40;1.00;;;;;;5072556;28;20087;-86
2021/05/22 08:07:00;;;;;;;4.28;1.90;;;14.50;1.00;;;;;;5067265;28;20486;-85
2021/05/22 08:09:26;;;;;;;5.10;1.85;;;14.40;1.00;;;;;;5071213;28;20037;-86
2021/05/22 08:11:52;;;;;;;3.78;1.60;;;14.60;1.00;;;;;;5072682;28;20020;-86
2021/05/22 08:14:18;;;;;;;4.35;1.50;;;14.70;1.00;;;;;;5072778;28;20033;-86
2021/05/22 08:16:45;;;;;;;2.55;1.50;;;14.80;1.00;;;;;;5071438;28;20094;-85
2021/05/22 08:19:12;;;;;;;10.15;1.83;;;15.00;1.00;;;;;;5065723;28;20036;-87
2021/05/22 08:21:38;;;;;;;4.15;1.50;;;14.90;1.00;;;;;;5069937;28;20520;-89
2021/05/22 08:24:05;;;;;;;3.90;1.52;;;15.10;1.00;;;;;;5073206;28;20572;-86
2021/05/22 08:26:31;;;;;;;4.35;1.60;;;15.20;1.00;;;;;;5070716;28;20070;-87
2021/05/22 08:28:56;;;;;;;5.45;1.70;;;15.40;1.00;;;;;;5071756;28;20025;-86
2021/05/22 08:31:22;;;;;;;4.97;1.50;;;15.60;1.00;;;;;;5071214;28;20060;-86
2021/05/22 08:33:48;;;;;;;4.28;1.45;;;15.70;99.90;;;;;;5072092;28;20119;-86
2021/05/22 08:36:14;;;;;;;6.40;1.65;;;15.60;99.90;;;;;;5072417;28;20021;-86
2021/05/22 08:38:41;;;;;;;5.88;1.63;;;15.60;99.90;;;;;;5070949;28;20021;-87
2021/05/22 08:41:07;;;;;;;5.80;1.48;;;15.60;1.00;;;;;;5070556;28;20473;-86
2021/05/22 08:43:33;;;;;;;5.35;1.45;;;16.10;99.90;;;;;;5071837;28;20024;-87
2021/05/22 08:46:00;;;;;;;2.65;1.30;;;16.40;99.90;;;;;;5070948;28;20024;-86
2021/05/22 08:48:26;;;;;;;6.78;2.08;;;16.70;99.90;;;;;;5073205;28;20047;-86
2021/05/22 08:50:52;;;;;;;5.30;1.85;;;16.50;99.90;;;;;;5073133;28;20064;-86
2021/05/22 08:53:18;;;;;;;4.40;1.55;;;16.60;99.90;;;;;;5070621;28;20082;-86
2021/05/22 08:55:44;;;;;;;4.30;1.50;;;16.80;99.90;;;;;;5070082;28;20033;-86
2021/05/22 08:58:10;;;;;;;3.20;1.20;;;16.90;99.90;;;;;;5069358;28;20028;-87
2021/05/22 09:00:39;;;;;;;4.40;1.65;;;17.20;99.90;;;;;;5071877;28;20111;-86
2021/05/22 09:03:11;;;;;;;6.68;1.45;;;17.40;99.90;;;;;;5089140;28;20032;-86
2021/05/22 09:05:38;;;;;;;3.83;1.30;;;17.50;99.90;;;;;;5068925;28;20020;-87
2021/05/22 09:08:11;;;;;;;4.82;1.40;;;17.20;99.90;;;;;;5070354;28;20032;-86
2021/05/22 09:10:47;;;;;;;3.63;1.50;;;17.20;99.90;;;;;;5070624;28;20044;-87
2021/05/22 09:13:34;;;;;;;3.10;1.30;;;16.80;99.90;;;;;;5070932;28;20044;-86
2021/05/22 09:16:06;;;;;;;4.80;1.80;;;17.30;99.90;;;;;;5070756;28;20024;-87
2021/05/22 09:18:37;;;;;;;3.92;1.35;;;17.50;99.90;;;;;;5071045;28;20059;-86
2021/05/22 09:21:05;;;;;;;3.42;1.30;;;17.60;99.90;;;;;;5068536;28;20372;-86
2021/05/22 09:23:35;;;;;;;5.38;1.60;;;18.00;99.90;;;;;;5069256;28;20126;-86
2021/05/22 09:26:13;;;;;;;4.53;1.40;;;17.80;99.90;;;;;;5070882;28;20087;-86
2021/05/22 09:28:50;;;;;;;2.85;1.17;;;17.70;99.90;;;;;;5070409;28;20591;-86
2021/05/22 09:31:17;;;;;;;3.42;1.88;;;18.00;99.90;;;;;;5070447;28;20075;-86
2021/05/22 09:33:43;;;;;;;5.68;2.22;;;18.30;99.90;;;;;;5069013;28;20453;-86
2021/05/22 09:36:12;;;;;;;4.47;1.45;;;18.60;99.90;;;;;;5071555;28;20028;-86
2021/05/22 09:38:52;;;;;;;6.00;1.45;;;18.60;99.90;;;;;;5069810;28;20024;-86
2021/05/22 09:41:20;;;;;;;4.38;1.40;;;18.40;99.90;;;;;;5070334;28;20021;-85
2021/05/22 09:44:06;;;;;;;4.30;1.20;;;18.50;99.90;;;;;;5070260;28;20025;-86
2021/05/22 09:46:34;;;;;;;4.88;1.55;;;18.90;99.90;;;;;;5070032;28;20481;-86
2021/05/22 09:49:04;;;;;;;6.63;1.80;;;18.80;99.90;;;;;;5070377;28;20098;-86
2021/05/22 09:51:31;;;;;;;3.58;1.65;;;18.60;99.90;;;;;;5069996;28;20079;-85
2021/05/22 09:53:56;;;;;;;6.68;1.90;;;18.60;99.90;;;;;;5071803;28;20509;-86
2021/05/22 09:56:25;;;;;;;1.75;1.42;;;18.90;99.90;;;;;;5069936;28;20037;-84
2021/05/22 09:58:58;;;;;;;4.85;1.48;;;19.00;99.90;;;;;;5070076;28;20497;-84
2021/05/22 10:01:29;;;;;;;2.80;1.20;;;19.30;99.90;;;;;;5070076;28;20021;-84
2021/05/22 10:03:55;;;;;;;4.43;1.38;;;19.30;99.90;;;;;;5071526;28;20028;-84
2021/05/22 10:06:38;;;;;;;4.50;1.35;;;19.30;99.90;;;;;;5069535;28;20032;-84
2021/05/22 10:09:16;;;;;;;2.97;1.23;;;19.30;99.90;;;;;;5068430;28;20047;-86
2021/05/22 10:12:02;;;;;;;6.65;1.50;;;19.10;99.90;;;;;;5071424;28;20080;-86
2021/05/22 10:14:35;;;;;;;3.33;1.52;;;19.10;99.90;;;;;;5068351;28;20072;-87
2021/05/22 10:17:02;;;;;;;3.53;1.02;;;19.30;99.90;;;;;;5068513;28;20191;-87
2021/05/22 10:19:29;;;;;;;3.25;1.20;;;19.40;99.90;;;;;;5070066;28;20511;-85
2021/05/22 10:21:56;;;;;;;5.35;1.40;;;19.60;99.90;;;;;;5070038;28;20025;-88
2021/05/22 10:24:22;;;;;;;3.90;1.20;;;19.00;99.90;;;;;;5069833;28;20070;-89
2021/05/22 10:26:49;;;;;;;2.42;1.23;;;18.80;99.90;;;;;;5071625;28;20083;-88
2021/05/22 10:29:15;;;;;;;3.08;1.10;;;18.90;99.90;;;;;;5070144;28;20028;-89
2021/05/22 10:31:41;;;;;;;4.00;1.23;;;18.70;99.90;;;;;;5069990;28;20051;-91
2021/05/22 10:34:21;;;;;;;5.20;1.52;;;18.90;99.90;;;;;;5070019;28;20036;-88
2021/05/22 10:36:53;;;;;;;4.65;1.23;;;19.10;99.90;;;;;;5054628;28;20074;-87
2021/05/22 10:39:44;;;;;;;3.13;1.30;;;19.40;99.90;;;;;;5069608;28;20028;-88
2021/05/22 10:42:22;;;;;;;3.53;1.52;;;19.70;99.90;;;;;;5068347;28;20048;-87
2021/05/22 10:44:49;;;;;;;3.28;1.40;;;19.40;99.90;;;;;;5071338;28;20028;-88
2021/05/22 10:47:17;;;;;;;3.00;1.58;;;19.00;99.90;;;;;;5069582;28;20111;-90
2021/05/22 10:49:57;;;;;;;3.97;1.33;;;19.50;99.90;;;;;;5069612;28;20035;-89
2021/05/22 10:52:26;;;;;;;3.10;1.40;;;19.30;99.90;;;;;;5067820;28;20033;-84
2021/05/22 10:55:10;;;;;;;4.13;1.30;;;19.20;99.90;;;;;;5068011;28;20029;-87
2021/05/22 10:57:42;;;;;;;3.78;1.38;;;19.10;99.90;;;;;;5051795;28;20027;-84
2021/05/22 11:00:14;;;;;;;4.35;1.60;;;19.40;99.90;;;;;;5067594;28;20064;-84
2021/05/22 11:02:42;;;;;;;3.42;1.20;;;19.40;99.90;;;;;;5070113;28;20489;-83
2021/05/22 11:05:24;;;;;;;6.10;1.40;;;19.50;99.90;;;;;;5069372;28;20465;-84
2021/05/22 11:08:08;;;;;;;4.25;1.38;;;19.40;99.90;;;;;;5069355;28;20028;-85
2021/05/22 11:10:43;;;;;;;1.73;1.17;;;19.10;99.90;;;;;;5072570;28;20380;-86
2021/05/22 11:13:30;;;;;;;3.85;1.40;;;19.40;99.90;;;;;;5073384;28;20409;-88
2021/05/22 11:16:05;;;;;;;3.38;1.63;;;19.70;99.90;;;;;;5072965;28;20054;-87
2021/05/22 11:18:34;;;;;;;4.63;1.60;;;20.20;99.90;;;;;;5072604;28;20074;-86
2021/05/22 11:21:09;;;;;;;3.50;1.30;;;20.40;99.90;;;;;;5074711;28;20032;-87
2021/05/22 11:24:06;;;;;;;2.92;1.17;;;20.00;99.90;;;;;;5074248;28;20025;-86
2021/05/22 11:26:57;;;;;;;4.45;1.77;;;20.60;99.90;;;;;;5073452;28;20024;-86
2021/05/22 11:29:44;;;;;;;2.58;1.10;;;21.00;99.90;;;;;;5073611;28;20024;-86
2021/05/22 11:32:50;;;;;;;2.40;1.25;;;20.90;99.90;;;;;;5070485;28;20113;-86
2021/05/22 11:35:34;;;;;;;4.70;1.33;;;20.50;99.90;;;;;;5034924;28;20055;-86
2021/05/22 11:38:12;;;;;;;3.40;1.20;;;20.70;99.90;;;;;;5049139;28;20164;-86
2021/05/22 11:40:38;;;;;;;3.90;1.38;;;20.60;99.90;;;;;;5048940;28;20043;-85
2021/05/22 11:43:18;;;;;;;3.03;1.10;;;20.80;99.90;;;;;;5049790;28;20099;-85
2021/05/22 11:46:01;;;;;;;3.25;1.10;;;21.00;99.90;;;;;;5050540;28;20029;-85
2021/05/22 11:48:31;;;;;;;2.75;1.30;;;21.70;99.90;;;;;;5049554;28;20425;-85
2021/05/22 11:50:57;;;;;;;2.50;1.75;;;22.80;99.90;;;;;;5051356;28;20118;-86
2021/05/22 11:53:24;;;;;;;3.60;1.35;;;24.60;99.90;;;;;;5048437;28;20049;-85
2021/05/22 11:56:09;;;;;;;3.53;1.35;;;26.10;99.90;;;;;;5048814;28;20710;-86
2021/05/22 11:58:37;;;;;;;3.65;1.45;;;27.20;99.90;;;;;;5048617;28;20021;-85
2021/05/22 12:01:16;;;;;;;2.97;1.20;;;29.00;99.90;;;;;;5048169;28;20040;-85
2021/05/22 12:03:45;;;;;;;3.05;1.30;;;29.60;99.90;;;;;;5049112;28;20498;-86
2021/05/22 12:06:23;;;;;;;4.13;1.38;;;28.80;99.90;;;;;;5064006;28;20549;-86
2021/05/22 12:09:06;;;;;;;3.47;1.10;;;28.50;99.90;;;;;;5073887;28;20060;-86
2021/05/22 12:11:33;;;;;;;5.20;1.42;;;29.80;99.90;;;;;;5072230;28;20489;-86
2021/05/22 12:14:02;;;;;;;5.90;1.38;;;29.60;99.90;;;;;;5071855;28;20063;-85
2021/05/22 12:16:29;;;;;;;4.75;1.50;;;28.60;99.90;;;;;;5071662;28;20032;-85
2021/05/22 12:18:54;;;;;;;2.15;1.30;;;28.20;99.90;;;;;;5072481;28;20102;-85
2021/05/22 12:21:31;;;;;;;2.75;1.20;;;27.10;99.90;;;;;;5071580;28;20033;-86
2021/05/22 12:24:15;;;;;;;3.10;1.20;;;27.10;99.90;;;;;;5073634;28;20024;-86
2021/05/22 12:26:47;;;;;;;3.60;1.55;;;28.00;99.90;;;;;;5073128;28;20056;-86
2021/05/22 12:29:13;;;;;;;1.80;0.93;;;29.00;99.90;;;;;;5071619;28;20024;-86
2021/05/22 12:31:39;;;;;;;3.85;1.20;;;29.50;99.90;;;;;;5071628;28;20417;-86
2021/05/22 12:34:06;;;;;;;2.88;1.30;;;29.90;99.90;;;;;;5071827;28;20028;-86
2021/05/22 12:36:34;;;;;;;5.15;1.55;;;29.60;99.90;;;;;;5071658;28;20020;-86
2021/05/22 12:39:13;;;;;;;2.20;1.10;;;29.40;99.90;;;;;;5073968;28;20032;-86
2021/05/22 12:41:39;;;;;;;1.85;1.00;;;28.40;99.90;;;;;;5072773;28;20094;-86
2021/05/22 12:44:07;;;;;;;2.28;1.10;;;28.60;99.90;;;;;;5071552;28;20028;-85
2021/05/22 12:46:35;;;;;;;1.83;1.25;;;28.60;99.90;;;;;;5071170;28;20187;-88
2021/05/22 12:49:18;;;;;;;3.20;1.40;;;27.40;99.90;;;;;;5070135;28;20059;-86
2021/05/22 12:51:45;;;;;;;2.13;1.10;;;26.60;99.90;;;;;;5055088;28;20378;-86
2021/05/22 12:54:29;;;;;;;3.08;1.10;;;26.70;99.90;;;;;;5073069;28;20040;-86
2021/05/22 12:57:15;;;;;;;3.83;1.50;;;26.40;99.90;;;;;;5072893;28;20509;-86
2021/05/22 12:59:52;;;;;;;2.65;1.25;;;26.20;99.90;;;;;;5072185;28;20036;-86
2021/05/22 13:02:22;;;;;;;2.05;1.17;;;27.80;99.90;;;;;;5071022;28;20033;-85